Flight Track Log - Related Links

Times and Time Zones

All times are in EDT time to prevent confusion due to time zone crossing. See the N201LH flight status page for this flight to view local times or setup timezone preferences in your user account.

Time Position Orientation Groundspeed Altitude Reporting Facility
EDT Latitude Longitude Course Direction KTS MPH feet Rate Location/Type
Sun 12:28:00 PM 43.4983 -84.2176 287° West  Level FlightAware Approximate
Sun 12:28:41 PM 43.4947 -84.1550 287° West 123 142 6,000  Level Minneapolis Center
Sun 12:29:00 PM 43.5116 -84.2780 287° West  Level FlightAware Approximate
Sun 12:29:43 PM 43.5067 -84.2086 287° West 131 151 6,000  Level Minneapolis Center
Sun 12:30:00 PM 43.5249 -84.3384 287° West  Level FlightAware Approximate
Sun 12:31:00 PM 43.5381 -84.3989 287° West  Level FlightAware Approximate
Sun 12:31:00 PM 43.5227 -84.2866 286° West  Level FlightAware Approximate
Sun 12:31:47 PM 43.5347 -84.3400 286° West 156 180 6,000  Level Minneapolis Center
Sun 12:32:00 PM 43.5513 -84.4594 287° West  Level FlightAware Approximate
Sun 12:32:49 PM 43.5478 -84.3989 287° West 159 183 6,000  Level Minneapolis Center
Sun 12:33:00 PM 43.5645 -84.5199 287° West  Level FlightAware Approximate
Sun 12:33:51 PM 43.5600 -84.4575 286° West 160 184 6,000  Level Minneapolis Center
Sun 12:34:53 PM 43.5725 -84.5156 287° West 160 184 6,000  Level Minneapolis Center
Sun 12:35:56 PM 43.5856 -84.5728 288° West 159 183 6,000  Level Minneapolis Center
Sun 12:36:58 PM 43.6006 -84.6447 286° West 160 184 6,000  Level Minneapolis Center
Sun 12:38:00 PM 43.6139 -84.7039 287° West 161 185 6,000  Level Minneapolis Center
Sun 12:39:02 PM 43.6242 -84.7603 284° West 157 181 6,000  Level Minneapolis Center
Sun 12:40:04 PM 43.6364 -84.8192 286° West 160 184 6,000  Level Minneapolis Center
Sun 12:41:06 PM 43.6492 -84.8778 287° West 160 184 6,000  Level Minneapolis Center
Sun 12:42:08 PM 43.6647 -84.9494 287° West 162 186 6,000  Level Minneapolis Center
Sun 12:43:10 PM 43.6767 -85.0078 286° West 160 184 6,000  Level Minneapolis Center
Sun 12:44:12 PM 43.6894 -85.0664 287° West 160 184 6,000  Level Minneapolis Center
Sun 12:45:14 PM 43.7011 -85.1261 285° West 161 185 6,000  Level Minneapolis Center
Sun 12:46:16 PM 43.7136 -85.1833 287° West 158 182 6,000  Level Minneapolis Center
Sun 12:47:18 PM 43.7269 -85.2439 287° West 162 186 6,000  Level Minneapolis Center
Sun 12:48:20 PM 43.7411 -85.3136 286° West 158 182 6,000  Level Minneapolis Center
Sun 12:49:22 PM 43.7536 -85.3742 286° West 161 185 6,000  Level Minneapolis Center
Sun 12:50:24 PM 43.7653 -85.4333 285° West 161 185 6,000  Level Minneapolis Center
Sun 12:51:26 PM 43.7783 -85.4931 287° West 162 186 6,000  Level Minneapolis Center
Sun 12:52:29 PM 43.7897 -85.5522 285° West 160 184 6,000  Level Minneapolis Center
Sun 12:53:31 PM 43.8053 -85.6250 287° West 163 188 6,000 -161 Level Minneapolis Center
Sun 12:55:00 PM 43.8226 -85.7160 285° West  Level FlightAware Approximate
Sun 12:55:35 PM 43.8306 -85.7472 285° West 166 191 5,500  Level Minneapolis Center
Sun 12:56:37 PM 43.8428 -85.8100 285° West 168 193 5,100 -387 Descending Minneapolis Center
Sun 12:57:39 PM 43.8564 -85.8728 287° West 169 194 4,700 -484 Descending Minneapolis Center
Sun 12:58:41 PM 43.8681 -85.9333 285° West 168 193 4,100 -576 Descending Minneapolis Center
Sun 12:59:44 PM 43.8831 -86.0053 286° West 165 190 3,500 -429 Descending Minneapolis Center
Sun 01:00:47 PM 43.8939 -86.0628 285° West 162 186 3,200 -286 Descending Minneapolis Center

Login

Don't have an account? Register now (free) for customized features, flight alerts, and more!